createdAt,value
2018-01-25T00:00:01.335Z,4.76
2018-01-25T00:00:05.435Z,4.77
2018-01-25T00:00:09.540Z,4.77
2018-01-25T00:00:13.529Z,4.77
2018-01-25T00:00:17.427Z,4.78
2018-01-25T00:00:21.318Z,4.78
2018-01-25T00:00:25.433Z,4.79
2018-01-25T00:00:29.330Z,4.78
2018-01-25T00:00:33.328Z,4.79
2018-01-25T00:00:37.233Z,4.79
2018-01-25T00:00:41.127Z,4.79
2018-01-25T00:00:45.128Z,4.8
2018-01-25T00:00:49.022Z,4.8
2018-01-25T00:00:53.025Z,4.8
2018-01-25T00:00:56.710Z,4.8
2018-01-25T00:01:00.508Z,4.81
2018-01-25T00:01:04.242Z,4.8
2018-01-25T00:01:08.134Z,4.81
2018-01-25T00:01:11.928Z,4.8
2018-01-25T00:01:15.929Z,4.81
2018-01-25T00:01:19.924Z,4.82
2018-01-25T00:01:23.926Z,4.82
2018-01-25T00:01:27.926Z,4.81
2018-01-25T00:01:32.037Z,4.82
2018-01-25T00:01:36.145Z,4.82
2018-01-25T00:01:40.248Z,4.83
2018-01-25T00:01:44.249Z,4.83
2018-01-25T00:01:48.145Z,4.83
2018-01-25T00:01:51.934Z,4.84
2018-01-25T00:01:55.929Z,4.82
2018-01-25T00:01:59.935Z,4.83
2018-01-25T00:02:03.827Z,4.83
2018-01-25T00:02:07.721Z,4.85
2018-01-25T00:02:11.506Z,4.84
2018-01-25T00:02:15.405Z,4.85
2018-01-25T00:02:19.321Z,4.85
2018-01-25T00:02:23.217Z,4.86
2018-01-25T00:02:27.219Z,4.84
2018-01-25T00:02:31.217Z,4.86
2018-01-25T00:02:35.169Z,4.86
2018-01-25T00:02:38.966Z,4.86
2018-01-25T00:02:42.859Z,4.87
2018-01-25T00:02:46.754Z,4.87
2018-01-25T00:02:50.751Z,4.87
2018-01-25T00:02:54.538Z,4.87
2018-01-25T00:02:58.532Z,4.87
2018-01-25T00:03:02.434Z,4.87
2018-01-25T00:03:06.436Z,4.86
2018-01-25T00:03:10.437Z,4.88
2018-01-25T00:03:14.737Z,4.88
2018-01-25T00:03:18.907Z,4.88
2018-01-25T00:03:22.806Z,4.88
2018-01-25T00:03:26.702Z,4.88
2018-01-25T00:03:30.488Z,4.88
2018-01-25T00:03:34.493Z,4.9
2018-01-25T00:03:38.179Z,4.89
2018-01-25T00:03:42.174Z,4.89
2018-01-25T00:03:45.854Z,4.9
2018-01-25T00:03:50.003Z,4.9
2018-01-25T00:03:53.699Z,4.9
2018-01-25T00:03:57.696Z,4.9
2018-01-25T00:04:01.379Z,4.91
2018-01-25T00:04:05.275Z,4.9
2018-01-25T00:04:09.069Z,4.91
2018-01-25T00:04:12.863Z,4.91
2018-01-25T00:04:16.743Z,4.92
2018-01-25T00:04:20.639Z,4.91
2018-01-25T00:04:24.635Z,4.93
2018-01-25T00:04:28.586Z,4.93
2018-01-25T00:04:32.378Z,4.93
2018-01-25T00:04:36.282Z,4.92
2018-01-25T00:04:40.282Z,4.93
2018-01-25T00:04:44.279Z,4.93
2018-01-25T00:04:48.281Z,4.93
2018-01-25T00:04:52.171Z,4.94
2018-01-25T00:04:55.963Z,4.93
2018-01-25T00:04:59.645Z,4.94
2018-01-25T00:05:03.649Z,4.94
2018-01-25T00:05:07.437Z,4.95
2018-01-25T00:05:11.329Z,4.94
2018-01-25T00:05:15.113Z,4.95
2018-01-25T00:05:19.001Z,4.95
2018-01-25T00:05:22.790Z,4.95
2018-01-25T00:05:26.680Z,4.96
2018-01-25T00:05:30.783Z,4.95
2018-01-25T00:05:34.894Z,4.95
2018-01-25T00:05:38.577Z,4.96
2018-01-25T00:05:42.683Z,4.97
2018-01-25T00:05:46.787Z,4.97
2018-01-25T00:05:50.891Z,4.97
2018-01-25T00:05:54.901Z,4.97
2018-01-25T00:05:58.895Z,4.98
2018-01-25T00:06:03.201Z,4.98
2018-01-25T00:06:07.199Z,4.98
2018-01-25T00:06:10.991Z,4.98
2018-01-25T00:06:14.882Z,4.99
2018-01-25T00:06:19.086Z,4.99
2018-01-25T00:06:23.088Z,5
2018-01-25T00:06:26.987Z,4.99
2018-01-25T00:06:30.983Z,4.99
2018-01-25T00:06:34.988Z,5
2018-01-25T00:06:38.664Z,5.01
2018-01-25T00:06:42.792Z,5
2018-01-25T00:06:46.791Z,5
2018-01-25T00:06:50.793Z,5
2018-01-25T00:06:54.793Z,5.01
2018-01-25T00:06:58.788Z,5.01
2018-01-25T00:07:03.187Z,5.01
2018-01-25T00:07:07.189Z,5.01
2018-01-25T00:07:11.303Z,5.03
2018-01-25T00:07:15.094Z,5.02
2018-01-25T00:07:19.189Z,5.03
2018-01-25T00:07:22.977Z,5.03
2018-01-25T00:07:26.873Z,5.02
2018-01-25T00:07:30.665Z,5.03
2018-01-25T00:07:34.452Z,5.03
2018-01-25T00:07:38.352Z,5.04
2018-01-25T00:07:42.346Z,5.04
2018-01-25T00:07:46.141Z,5.04
2018-01-25T00:07:50.036Z,5.04
2018-01-25T00:07:53.932Z,5.04
2018-01-25T00:07:57.944Z,5.04
2018-01-25T00:08:02.253Z,5.05
2018-01-25T00:08:06.149Z,5.04
2018-01-25T00:08:10.051Z,5.04
2018-01-25T00:08:14.258Z,5.05
2018-01-25T00:08:18.158Z,5.06
2018-01-25T00:08:22.269Z,5.06
2018-01-25T00:08:26.483Z,5.06
2018-01-25T00:08:30.483Z,5.06
2018-01-25T00:08:34.265Z,5.07
2018-01-25T00:08:38.052Z,5.07
2018-01-25T00:08:42.158Z,5.08
2018-01-25T00:08:45.949Z,5.07
2018-01-25T00:08:50.058Z,5.08
2018-01-25T00:08:53.846Z,5.07
2018-01-25T00:08:57.637Z,5.08
2018-01-25T00:09:01.531Z,5.08
2018-01-25T00:09:05.642Z,5.08
2018-01-25T00:09:09.642Z,5.08
2018-01-25T00:09:13.436Z,5.09
2018-01-25T00:09:17.436Z,5.09
2018-01-25T00:09:21.625Z,5.09
2018-01-25T00:09:25.657Z,5.09
2018-01-25T00:09:29.655Z,5.1
2018-01-25T00:09:33.555Z,5.1
2018-01-25T00:09:37.235Z,5.09
2018-01-25T00:09:41.131Z,5.09
2018-01-25T00:09:45.340Z,5.11
2018-01-25T00:09:49.338Z,5.11
2018-01-25T00:09:53.239Z,5.11
2018-01-25T00:09:57.134Z,5.1
2018-01-25T00:10:01.022Z,5.11
2018-01-25T00:10:05.330Z,5.11
2018-01-25T00:10:09.324Z,5.11
2018-01-25T00:10:13.322Z,5.11
2018-01-25T00:10:17.428Z,5.11
2018-01-25T00:10:21.433Z,5.12
2018-01-25T00:10:25.330Z,5.12
2018-01-25T00:10:29.018Z,5.12
2018-01-25T00:10:32.917Z,5.13
2018-01-25T00:10:36.917Z,5.13
2018-01-25T00:10:40.808Z,5.13
2018-01-25T00:10:44.695Z,5.13
2018-01-25T00:10:48.594Z,5.13
2018-01-25T00:10:52.591Z,5.13
2018-01-25T00:10:56.591Z,5.13
2018-01-25T00:11:00.489Z,5.13
2018-01-25T00:11:04.441Z,5.13
2018-01-25T00:11:08.541Z,5.13
2018-01-25T00:11:12.547Z,5.13
2018-01-25T00:11:16.442Z,5.13
2018-01-25T00:11:20.443Z,5.14
2018-01-25T00:11:24.649Z,5.14
2018-01-25T00:11:28.547Z,5.14
2018-01-25T00:11:32.551Z,5.14
2018-01-25T00:11:36.659Z,5.14
2018-01-25T00:11:40.556Z,5.15
2018-01-25T00:11:44.664Z,5.14
2018-01-25T00:11:48.769Z,5.14
2018-01-25T00:11:52.667Z,5.14
2018-01-25T00:11:56.566Z,5.13
2018-01-25T00:12:00.459Z,5.15
2018-01-25T00:12:04.254Z,5.15
2018-01-25T00:12:08.253Z,5.14
2018-01-25T00:12:12.154Z,5.15
2018-01-25T00:12:15.841Z,5.15
2018-01-25T00:12:19.529Z,5.15
2018-01-25T00:12:23.430Z,5.14
2018-01-25T00:12:27.644Z,5.14
2018-01-25T00:12:31.653Z,5.15
2018-01-25T00:12:35.649Z,5.14
2018-01-25T00:12:39.755Z,5.15
2018-01-25T00:12:43.648Z,5.15
2018-01-25T00:12:47.643Z,5.14
2018-01-25T00:12:51.645Z,5.14
2018-01-25T00:12:55.544Z,5.15
2018-01-25T00:12:59.335Z,5.15
2018-01-25T00:13:03.256Z,5.15
2018-01-25T00:13:07.468Z,5.15
2018-01-25T00:13:11.460Z,5.15
2018-01-25T00:13:15.516Z,5.15
2018-01-25T00:13:19.300Z,5.15
2018-01-25T00:13:23.514Z,5.15
2018-01-25T00:13:27.411Z,5.15
2018-01-25T00:13:31.302Z,5.16
2018-01-25T00:13:35.192Z,5.15
2018-01-25T00:13:38.983Z,5.15
2018-01-25T00:13:42.666Z,5.16
2018-01-25T00:13:46.868Z,5.16
2018-01-25T00:13:50.764Z,5.16
2018-01-25T00:13:54.868Z,5.15
2018-01-25T00:13:59.135Z,5.15
2018-01-25T00:14:03.132Z,5.15
2018-01-25T00:14:07.136Z,5.15
2018-01-25T00:14:10.925Z,5.16
2018-01-25T00:14:14.716Z,5.16
2018-01-25T00:14:18.397Z,5.16
2018-01-25T00:14:22.079Z,5.15
2018-01-25T00:14:25.972Z,5.16
2018-01-25T00:14:29.871Z,5.15
2018-01-25T00:14:33.768Z,5.16
2018-01-25T00:14:37.558Z,5.16
2018-01-25T00:14:41.344Z,5.16
2018-01-25T00:14:45.556Z,5.15
2018-01-25T00:14:49.763Z,5.16
2018-01-25T00:14:53.443Z,5.17
2018-01-25T00:14:57.338Z,5.16
2018-01-25T00:15:01.725Z,5.16
2018-01-25T00:15:05.830Z,5.15
2018-01-25T00:15:09.624Z,5.16
2018-01-25T00:15:13.622Z,5.16
2018-01-25T00:15:17.622Z,5.16
2018-01-25T00:15:21.843Z,5.16
2018-01-25T00:15:25.945Z,5.15
2018-01-25T00:15:30.058Z,5.17
2018-01-25T00:15:34.162Z,5.16
2018-01-25T00:15:37.954Z,5.15
2018-01-25T00:15:41.847Z,5.16
2018-01-25T00:15:45.633Z,5.16
2018-01-25T00:15:49.525Z,5.15
2018-01-25T00:15:53.315Z,5.16
2018-01-25T00:15:57.419Z,5.16
2018-01-25T00:16:01.526Z,5.16
2018-01-25T00:16:06.099Z,5.16
2018-01-25T00:16:10.107Z,5.16
2018-01-25T00:16:14.101Z,5.16
2018-01-25T00:16:18.102Z,5.17
2018-01-25T00:16:22.002Z,5.16
2018-01-25T00:16:25.894Z,5.16
2018-01-25T00:16:29.682Z,5.17
2018-01-25T00:16:33.577Z,5.16
2018-01-25T00:16:37.366Z,5.16
2018-01-25T00:16:41.263Z,5.16
2018-01-25T00:16:45.156Z,5.17
2018-01-25T00:16:49.053Z,5.16
2018-01-25T00:16:53.053Z,5.16
2018-01-25T00:16:57.051Z,5.16
2018-01-25T00:17:01.267Z,5.16
2018-01-25T00:17:05.458Z,5.16
2018-01-25T00:17:09.247Z,5.15
2018-01-25T00:17:13.033Z,5.16
2018-01-25T00:17:16.926Z,5.17
2018-01-25T00:17:20.710Z,5.16
2018-01-25T00:17:24.495Z,5.16
2018-01-25T00:17:28.710Z,5.16
2018-01-25T00:17:32.501Z,5.16
2018-01-25T00:17:36.296Z,5.16
2018-01-25T00:17:40.195Z,5.16
2018-01-25T00:17:44.202Z,5.16
2018-01-25T00:17:47.992Z,5.15
2018-01-25T00:17:51.892Z,5.16
2018-01-25T00:17:55.791Z,5.15
2018-01-25T00:17:59.792Z,5.15
2018-01-25T00:18:03.582Z,5.15
2018-01-25T00:18:07.477Z,5.15
2018-01-25T00:18:11.375Z,5.15
2018-01-25T00:18:15.374Z,5.15
2018-01-25T00:18:19.377Z,5.15
2018-01-25T00:18:23.486Z,5.15
2018-01-25T00:18:27.382Z,5.14
2018-01-25T00:18:31.274Z,5.15
2018-01-25T00:18:34.960Z,5.15
2018-01-25T00:18:38.958Z,5.14
2018-01-25T00:18:43.056Z,5.14
2018-01-25T00:18:46.852Z,5.14
2018-01-25T00:18:50.847Z,5.14
2018-01-25T00:18:54.856Z,5.14
2018-01-25T00:18:58.645Z,5.15
2018-01-25T00:19:02.537Z,5.13
2018-01-25T00:19:06.537Z,5.14
2018-01-25T00:19:10.432Z,5.14
2018-01-25T00:19:14.331Z,5.14
2018-01-25T00:19:18.438Z,5.14
2018-01-25T00:19:22.544Z,5.13
2018-01-25T00:19:26.551Z,5.13
2018-01-25T00:19:30.242Z,5.13
2018-01-25T00:19:34.032Z,5.13
2018-01-25T00:19:37.713Z,5.13
2018-01-25T00:19:41.615Z,5.13
2018-01-25T00:19:45.514Z,5.13
2018-01-25T00:19:49.458Z,5.13
2018-01-25T00:19:53.356Z,5.12
2018-01-25T00:19:57.363Z,5.13
2018-01-25T00:20:01.154Z,5.13
2018-01-25T00:20:05.200Z,5.11
2018-01-25T00:20:09.095Z,5.13
2018-01-25T00:20:12.886Z,5.12
2018-01-25T00:20:16.893Z,5.12
2018-01-25T00:20:20.885Z,5.12
2018-01-25T00:20:24.571Z,5.12
2018-01-25T00:20:28.465Z,5.11
2018-01-25T00:20:32.359Z,5.11
2018-01-25T00:20:36.150Z,5.11
2018-01-25T00:20:40.152Z,5.11
2018-01-25T00:20:43.945Z,5.11
2018-01-25T00:20:47.729Z,5.11
2018-01-25T00:20:51.732Z,5.1
2018-01-25T00:20:55.628Z,5.1
2018-01-25T00:20:59.734Z,5.1
2018-01-25T00:21:03.677Z,5.1
2018-01-25T00:21:07.681Z,5.1
2018-01-25T00:21:11.573Z,5.1
2018-01-25T00:21:15.260Z,5.09
2018-01-25T00:21:19.157Z,5.09
2018-01-25T00:21:22.948Z,5.09
2018-01-25T00:21:26.952Z,5.08
2018-01-25T00:21:30.950Z,5.09
2018-01-25T00:21:34.638Z,5.08
2018-01-25T00:21:38.745Z,5.09
2018-01-25T00:21:42.853Z,5.09
2018-01-25T00:21:46.958Z,5.07
2018-01-25T00:21:51.161Z,5.07
2018-01-25T00:21:54.950Z,5.08
2018-01-25T00:21:58.851Z,5.08
2018-01-25T00:22:02.641Z,5.07
2018-01-25T00:22:06.650Z,5.07
2018-01-25T00:22:10.646Z,5.08
2018-01-25T00:22:14.441Z,5.07
2018-01-25T00:22:18.125Z,5.06
2018-01-25T00:22:22.131Z,5.06
2018-01-25T00:22:25.915Z,5.06
2018-01-25T00:22:29.706Z,5.06
2018-01-25T00:22:33.499Z,5.05
2018-01-25T00:22:37.404Z,5.05
2018-01-25T00:22:41.409Z,5.05
2018-01-25T00:22:45.406Z,5.04
2018-01-25T00:22:49.408Z,5.04
2018-01-25T00:22:53.413Z,5.04
2018-01-25T00:22:57.415Z,5.04
2018-01-25T00:23:01.415Z,5.04
2018-01-25T00:23:05.414Z,5.03
2018-01-25T00:23:09.412Z,5.03
2018-01-25T00:23:13.422Z,5.03
2018-01-25T00:23:17.314Z,5.03
2018-01-25T00:23:21.319Z,5.02
2018-01-25T00:23:25.527Z,5.02
2018-01-25T00:23:29.317Z,5.02
2018-01-25T00:23:33.211Z,5.02
2018-01-25T00:23:37.002Z,5.01
2018-01-25T00:23:41.001Z,5.01
2018-01-25T00:23:44.999Z,5.01
2018-01-25T00:23:49.205Z,5.01
2018-01-25T00:23:52.995Z,5
2018-01-25T00:23:56.992Z,5.01
2018-01-25T00:24:00.988Z,5
2018-01-25T00:24:05.244Z,4.99
2018-01-25T00:24:09.144Z,5
2018-01-25T00:24:13.150Z,4.99
2018-01-25T00:24:17.252Z,5
2018-01-25T00:24:21.252Z,4.99
2018-01-25T00:24:25.253Z,4.98
2018-01-25T00:24:29.202Z,4.97
2018-01-25T00:24:33.201Z,4.97
2018-01-25T00:24:36.888Z,4.98
2018-01-25T00:24:40.778Z,4.97
2018-01-25T00:24:44.881Z,4.97
2018-01-25T00:24:48.781Z,4.96
2018-01-25T00:24:52.787Z,4.96
2018-01-25T00:24:56.786Z,4.95
2018-01-25T00:25:00.789Z,4.95
2018-01-25T00:25:04.786Z,4.95
2018-01-25T00:25:08.994Z,4.94
2018-01-25T00:25:12.890Z,4.94
2018-01-25T00:25:16.575Z,4.94
2018-01-25T00:25:20.474Z,4.93
2018-01-25T00:25:24.474Z,4.93
2018-01-25T00:25:28.368Z,4.93
2018-01-25T00:25:32.369Z,4.92
2018-01-25T00:25:36.155Z,4.92
2018-01-25T00:25:40.159Z,4.92
2018-01-25T00:25:44.162Z,4.92
2018-01-25T00:25:47.954Z,4.91
2018-01-25T00:25:51.955Z,4.91
2018-01-25T00:25:55.846Z,4.9
2018-01-25T00:25:59.744Z,4.9
2018-01-25T00:26:04.093Z,4.9
2018-01-25T00:26:07.879Z,4.89
2018-01-25T00:26:11.775Z,4.89
2018-01-25T00:26:15.671Z,4.89
2018-01-25T00:26:19.466Z,4.89
2018-01-25T00:26:23.254Z,4.89
2018-01-25T00:26:27.156Z,4.88
2018-01-25T00:26:31.248Z,4.88
2018-01-25T00:26:35.352Z,4.88
2018-01-25T00:26:39.250Z,4.87
2018-01-25T00:26:43.464Z,4.87
2018-01-25T00:26:47.360Z,4.87
2018-01-25T00:26:51.171Z,4.86
2018-01-25T00:26:54.965Z,4.86
2018-01-25T00:26:59.085Z,4.86
2018-01-25T00:27:02.820Z,4.85
2018-01-25T00:27:06.717Z,4.85
2018-01-25T00:27:10.924Z,4.85
2018-01-25T00:27:14.869Z,4.84
2018-01-25T00:27:18.870Z,4.84
2018-01-25T00:27:22.763Z,4.83
2018-01-25T00:27:26.664Z,4.84
2018-01-25T00:27:30.451Z,4.84
2018-01-25T00:27:34.348Z,4.84
2018-01-25T00:27:38.037Z,4.82
2018-01-25T00:27:41.832Z,4.82
2018-01-25T00:27:45.720Z,4.82
2018-01-25T00:27:49.716Z,4.82
2018-01-25T00:27:53.604Z,4.81
2018-01-25T00:27:57.393Z,4.81
2018-01-25T00:28:01.182Z,4.81
2018-01-25T00:28:05.166Z,4.81
2018-01-25T00:28:09.171Z,4.8
2018-01-25T00:28:13.175Z,4.81
2018-01-25T00:28:17.080Z,4.8
2018-01-25T00:28:21.078Z,4.8
2018-01-25T00:28:24.978Z,4.8
2018-01-25T00:28:28.765Z,4.8
2018-01-25T00:28:32.878Z,4.79
2018-01-25T00:28:36.768Z,4.78
2018-01-25T00:28:40.768Z,4.79
2018-01-25T00:28:44.560Z,4.78
2018-01-25T00:28:48.341Z,4.78
2018-01-25T00:28:52.349Z,4.77
2018-01-25T00:28:56.349Z,4.76
2018-01-25T00:29:00.351Z,4.77
2018-01-25T00:29:04.458Z,4.77
2018-01-25T00:29:08.464Z,4.76
2018-01-25T00:29:12.468Z,4.76
2018-01-25T00:29:16.361Z,4.76
2018-01-25T00:29:20.252Z,4.75
2018-01-25T00:29:24.149Z,4.74
2018-01-25T00:29:28.153Z,4.75
2018-01-25T00:29:31.936Z,4.74
2018-01-25T00:29:35.942Z,4.75
2018-01-25T00:29:39.627Z,4.74
2018-01-25T00:29:43.625Z,4.74
2018-01-25T00:29:47.630Z,4.72
2018-01-25T00:29:51.527Z,4.73
2018-01-25T00:29:55.416Z,4.72
2018-01-25T00:29:59.414Z,4.73
2018-01-25T00:30:03.626Z,4.72
2018-01-25T00:30:07.833Z,4.71
2018-01-25T00:30:11.723Z,4.71
2018-01-25T00:30:15.513Z,4.72
2018-01-25T00:30:19.617Z,4.71
2018-01-25T00:30:23.410Z,4.7
2018-01-25T00:30:27.625Z,4.7
2018-01-25T00:30:31.632Z,4.7
2018-01-25T00:30:35.424Z,4.7
2018-01-25T00:30:39.211Z,4.7
2018-01-25T00:30:42.997Z,4.69
2018-01-25T00:30:47.000Z,4.68
2018-01-25T00:30:50.898Z,4.69
2018-01-25T00:30:54.686Z,4.68
2018-01-25T00:30:58.582Z,4.68
2018-01-25T00:31:02.725Z,4.68
2018-01-25T00:31:06.722Z,4.68
2018-01-25T00:31:10.723Z,4.67
2018-01-25T00:31:14.518Z,4.66
2018-01-25T00:31:18.409Z,4.66
2018-01-25T00:31:22.616Z,4.65
2018-01-25T00:31:26.516Z,4.65
2018-01-25T00:31:30.414Z,4.64
2018-01-25T00:31:34.311Z,4.64
2018-01-25T00:31:37.998Z,4.63
2018-01-25T00:31:42.109Z,4.64
2018-01-25T00:31:45.999Z,4.63
2018-01-25T00:31:49.999Z,4.64
2018-01-25T00:31:53.792Z,4.64
2018-01-25T00:31:57.687Z,4.63
2018-01-25T00:32:01.583Z,4.64
2018-01-25T00:32:05.480Z,4.63
2018-01-25T00:32:09.475Z,4.62
2018-01-25T00:32:13.386Z,4.62
2018-01-25T00:32:17.386Z,4.62
2018-01-25T00:32:21.178Z,4.62
2018-01-25T00:32:25.178Z,4.61
2018-01-25T00:32:29.069Z,4.61
2018-01-25T00:32:32.967Z,4.61
2018-01-25T00:32:36.758Z,4.6
2018-01-25T00:32:40.755Z,4.6
2018-01-25T00:32:44.754Z,4.6
2018-01-25T00:32:48.549Z,4.6
2018-01-25T00:32:52.336Z,4.59
2018-01-25T00:32:56.442Z,4.59
2018-01-25T00:33:00.338Z,4.59
2018-01-25T00:33:04.641Z,4.59
2018-01-25T00:33:08.639Z,4.59
2018-01-25T00:33:12.531Z,4.57
2018-01-25T00:33:16.317Z,4.58
2018-01-25T00:33:20.322Z,4.57
2018-01-25T00:33:24.427Z,4.57
2018-01-25T00:33:28.434Z,4.56
2018-01-25T00:33:32.226Z,4.57
2018-01-25T00:33:36.125Z,4.55
2018-01-25T00:33:40.019Z,4.55
2018-01-25T00:33:44.013Z,4.55
2018-01-25T00:33:47.908Z,4.56
2018-01-25T00:33:52.011Z,4.55
2018-01-25T00:33:56.116Z,4.55
2018-01-25T00:34:00.013Z,4.54
2018-01-25T00:34:04.129Z,4.54
2018-01-25T00:34:08.132Z,4.54
2018-01-25T00:34:12.238Z,4.54
2018-01-25T00:34:16.342Z,4.53
2018-01-25T00:34:20.338Z,4.53
2018-01-25T00:34:24.332Z,4.53
2018-01-25T00:34:28.019Z,4.53
2018-01-25T00:34:31.932Z,4.53
2018-01-25T00:34:35.826Z,4.52
2018-01-25T00:34:39.828Z,4.52
2018-01-25T00:34:43.873Z,4.51
2018-01-25T00:34:47.766Z,4.51
2018-01-25T00:34:51.557Z,4.51
2018-01-25T00:34:55.452Z,4.5
2018-01-25T00:34:59.136Z,4.51
2018-01-25T00:35:02.978Z,4.51
2018-01-25T00:35:06.768Z,4.5
2018-01-25T00:35:10.671Z,4.49
2018-01-25T00:35:14.673Z,4.5
2018-01-25T00:35:18.564Z,4.5
2018-01-25T00:35:22.353Z,4.5
2018-01-25T00:35:26.245Z,4.49
2018-01-25T00:35:30.453Z,4.48
2018-01-25T00:35:34.443Z,4.49
2018-01-25T00:35:38.235Z,4.48
2018-01-25T00:35:42.137Z,4.47
2018-01-25T00:35:46.141Z,4.47
2018-01-25T00:35:50.036Z,4.47
2018-01-25T00:35:53.829Z,4.47
2018-01-25T00:35:57.627Z,4.46
2018-01-25T00:36:01.627Z,4.47
2018-01-25T00:36:05.778Z,4.46
2018-01-25T00:36:09.782Z,4.47
2018-01-25T00:36:13.681Z,4.46
2018-01-25T00:36:17.568Z,4.45
2018-01-25T00:36:21.458Z,4.44
2018-01-25T00:36:25.565Z,4.45
2018-01-25T00:36:29.673Z,4.43
2018-01-25T00:36:33.673Z,4.43
2018-01-25T00:36:37.889Z,4.43
2018-01-25T00:36:41.574Z,4.43
2018-01-25T00:36:45.473Z,4.43
2018-01-25T00:36:49.158Z,4.43
2018-01-25T00:36:53.053Z,4.42
2018-01-25T00:36:57.050Z,4.42
2018-01-25T00:37:00.946Z,4.42
2018-01-25T00:37:05.045Z,4.41
2018-01-25T00:37:08.964Z,4.42
2018-01-25T00:37:12.857Z,4.41
2018-01-25T00:37:16.540Z,4.42
2018-01-25T00:37:20.536Z,4.41
2018-01-25T00:37:24.220Z,4.4
2018-01-25T00:37:28.112Z,4.4
2018-01-25T00:37:31.904Z,4.39
2018-01-25T00:37:35.903Z,4.39
2018-01-25T00:37:39.695Z,4.39
2018-01-25T00:37:43.378Z,4.39
2018-01-25T00:37:47.170Z,4.38
2018-01-25T00:37:50.955Z,4.39
2018-01-25T00:37:54.845Z,4.38
2018-01-25T00:37:58.741Z,4.38
2018-01-25T00:38:02.683Z,4.38
2018-01-25T00:38:06.586Z,4.37
2018-01-25T00:38:10.484Z,4.37
2018-01-25T00:38:14.375Z,4.38
2018-01-25T00:38:18.276Z,4.37
2018-01-25T00:38:22.164Z,4.37
2018-01-25T00:38:26.473Z,4.37
2018-01-25T00:38:30.475Z,4.36
2018-01-25T00:38:34.159Z,4.36
2018-01-25T00:38:38.051Z,4.35
2018-01-25T00:38:41.946Z,4.35
2018-01-25T00:38:46.049Z,4.35
2018-01-25T00:38:50.157Z,4.35
2018-01-25T00:38:54.153Z,4.35
2018-01-25T00:38:58.043Z,4.35
2018-01-25T00:39:01.993Z,4.34
2018-01-25T00:39:06.105Z,4.33
2018-01-25T00:39:10.101Z,4.34
2018-01-25T00:39:13.889Z,4.34
2018-01-25T00:39:18.107Z,4.33
2018-01-25T00:39:21.894Z,4.33
2018-01-25T00:39:25.889Z,4.32
2018-01-25T00:39:29.890Z,4.33
2018-01-25T00:39:33.785Z,4.32
2018-01-25T00:39:37.789Z,4.32
2018-01-25T00:39:41.683Z,4.33
2018-01-25T00:39:45.577Z,4.3
2018-01-25T00:39:49.361Z,4.31
2018-01-25T00:39:53.464Z,4.3
2018-01-25T00:39:57.145Z,4.3
2018-01-25T00:40:01.040Z,4.3
2018-01-25T00:40:04.938Z,4.29
2018-01-25T00:40:09.047Z,4.3
2018-01-25T00:40:12.837Z,4.28
2018-01-25T00:40:16.733Z,4.29
2018-01-25T00:40:20.856Z,4.29
2018-01-25T00:40:24.957Z,4.29
2018-01-25T00:40:28.856Z,4.28
2018-01-25T00:40:32.972Z,4.29
2018-01-25T00:40:36.654Z,4.29
2018-01-25T00:40:40.544Z,4.29
2018-01-25T00:40:44.540Z,4.28
2018-01-25T00:40:48.328Z,4.28
2018-01-25T00:40:52.433Z,4.27
2018-01-25T00:40:56.430Z,4.27
2018-01-25T00:41:00.214Z,4.27
2018-01-25T00:41:04.259Z,4.26
2018-01-25T00:41:08.050Z,4.27
2018-01-25T00:41:12.161Z,4.26
2018-01-25T00:41:16.160Z,4.26
2018-01-25T00:41:19.846Z,4.26
2018-01-25T00:41:23.742Z,4.26
2018-01-25T00:41:27.630Z,4.24
2018-01-25T00:41:31.419Z,4.25
2018-01-25T00:41:35.523Z,4.25
2018-01-25T00:41:39.313Z,4.25
2018-01-25T00:41:43.307Z,4.24
2018-01-25T00:41:47.200Z,4.24
2018-01-25T00:41:51.198Z,4.24
2018-01-25T00:41:55.097Z,4.23
2018-01-25T00:41:59.212Z,4.24
2018-01-25T00:42:03.304Z,4.24
2018-01-25T00:42:07.198Z,4.24
2018-01-25T00:42:11.410Z,4.24
2018-01-25T00:42:15.406Z,4.23
2018-01-25T00:42:19.403Z,4.23
2018-01-25T00:42:23.297Z,4.22
2018-01-25T00:42:27.289Z,4.23
2018-01-25T00:42:31.504Z,4.22
2018-01-25T00:42:35.188Z,4.22
2018-01-25T00:42:39.089Z,4.22
2018-01-25T00:42:42.977Z,4.22
2018-01-25T00:42:46.870Z,4.22
2018-01-25T00:42:50.761Z,4.2
2018-01-25T00:42:54.758Z,4.22
2018-01-25T00:42:58.657Z,4.21
2018-01-25T00:43:02.654Z,4.21
2018-01-25T00:43:06.758Z,4.21
2018-01-25T00:43:10.966Z,4.2
2018-01-25T00:43:14.855Z,4.21
2018-01-25T00:43:18.751Z,4.2
2018-01-25T00:43:22.545Z,4.2
2018-01-25T00:43:26.336Z,4.2
2018-01-25T00:43:30.444Z,4.2
2018-01-25T00:43:34.441Z,4.2
2018-01-25T00:43:38.340Z,4.19
2018-01-25T00:43:42.125Z,4.19
2018-01-25T00:43:46.021Z,4.19
2018-01-25T00:43:50.025Z,4.18
2018-01-25T00:43:53.923Z,4.19
2018-01-25T00:43:57.708Z,4.18
2018-01-25T00:44:01.603Z,4.19
2018-01-25T00:44:05.604Z,4.18
2018-01-25T00:44:09.389Z,4.17
2018-01-25T00:44:13.433Z,4.17
2018-01-25T00:44:17.221Z,4.17
2018-01-25T00:44:21.225Z,4.17
2018-01-25T00:44:25.365Z,4.16
2018-01-25T00:44:29.575Z,4.17
2018-01-25T00:44:33.369Z,4.16
2018-01-25T00:44:37.155Z,4.16
2018-01-25T00:44:41.304Z,4.16
2018-01-25T00:44:45.197Z,4.16
2018-01-25T00:44:49.102Z,4.17
2018-01-25T00:44:52.998Z,4.16
2018-01-25T00:44:56.896Z,4.16
2018-01-25T00:45:00.794Z,4.15
2018-01-25T00:45:04.628Z,4.15
2018-01-25T00:45:08.521Z,4.16
2018-01-25T00:45:12.524Z,4.16
2018-01-25T00:45:16.406Z,4.15
2018-01-25T00:45:20.520Z,4.15
2018-01-25T00:45:24.412Z,4.15
2018-01-25T00:45:28.414Z,4.16
2018-01-25T00:45:32.201Z,4.14
2018-01-25T00:45:35.993Z,4.15
2018-01-25T00:45:39.885Z,4.15
2018-01-25T00:45:43.890Z,4.15
2018-01-25T00:45:47.681Z,4.15
2018-01-25T00:45:51.366Z,4.15
2018-01-25T00:45:55.370Z,4.14
2018-01-25T00:45:59.374Z,4.15
2018-01-25T00:46:03.419Z,4.14
2018-01-25T00:46:07.207Z,4.14
2018-01-25T00:46:11.107Z,4.14
2018-01-25T00:46:15.102Z,4.13
2018-01-25T00:46:18.889Z,4.14
2018-01-25T00:46:22.898Z,4.14
2018-01-25T00:46:27.100Z,4.14
2018-01-25T00:46:30.998Z,4.13
2018-01-25T00:46:34.891Z,4.14
2018-01-25T00:46:38.788Z,4.14
2018-01-25T00:46:42.891Z,4.13
2018-01-25T00:46:46.781Z,4.14
2018-01-25T00:46:50.569Z,4.14
2018-01-25T00:46:54.478Z,4.12
2018-01-25T00:46:58.597Z,4.14
2018-01-25T00:47:02.826Z,4.14
2018-01-25T00:47:06.727Z,4.11
2018-01-25T00:47:10.832Z,4.14
2018-01-25T00:47:14.725Z,4.14
2018-01-25T00:47:18.722Z,4.13
2018-01-25T00:47:22.828Z,4.13
2018-01-25T00:47:26.829Z,4.13
2018-01-25T00:47:30.832Z,4.14
2018-01-25T00:47:34.826Z,4.13
2018-01-25T00:47:38.837Z,4.13
2018-01-25T00:47:42.735Z,4.13
2018-01-25T00:47:46.525Z,4.13
2018-01-25T00:47:50.520Z,4.13
2018-01-25T00:47:54.523Z,4.13
2018-01-25T00:47:58.418Z,4.12
2018-01-25T00:48:02.419Z,4.12
2018-01-25T00:48:06.319Z,4.11
2018-01-25T00:48:10.423Z,4.13
2018-01-25T00:48:14.529Z,4.12
2018-01-25T00:48:18.428Z,4.12
2018-01-25T00:48:22.533Z,4.11
2018-01-25T00:48:26.325Z,4.11
2018-01-25T00:48:30.329Z,4.12
2018-01-25T00:48:34.220Z,4.11
2018-01-25T00:48:38.006Z,4.12
2018-01-25T00:48:41.899Z,4.11
2018-01-25T00:48:45.801Z,4.13
2018-01-25T00:48:49.906Z,4.11
2018-01-25T00:48:53.800Z,4.11
2018-01-25T00:48:57.800Z,4.11
2018-01-25T00:49:01.696Z,4.11
2018-01-25T00:49:05.590Z,4.11
2018-01-25T00:49:09.593Z,4.11
2018-01-25T00:49:13.485Z,4.1
2018-01-25T00:49:17.384Z,4.11
2018-01-25T00:49:21.488Z,4.12
2018-01-25T00:49:25.384Z,4.11
2018-01-25T00:49:29.185Z,4.11
2018-01-25T00:49:33.187Z,4.11
2018-01-25T00:49:37.078Z,4.1
2018-01-25T00:49:40.862Z,4.11
2018-01-25T00:49:44.762Z,4.11
2018-01-25T00:49:48.651Z,4.11
2018-01-25T00:49:52.445Z,4.11
2018-01-25T00:49:56.127Z,4.1
2018-01-25T00:50:00.025Z,4.11
2018-01-25T00:50:03.929Z,4.1
2018-01-25T00:50:07.944Z,4.1
2018-01-25T00:50:11.734Z,4.1
2018-01-25T00:50:15.623Z,4.1
2018-01-25T00:50:19.628Z,4.1
2018-01-25T00:50:23.738Z,4.1
2018-01-25T00:50:27.783Z,4.1
2018-01-25T00:50:31.675Z,4.09
2018-01-25T00:50:35.682Z,4.09
2018-01-25T00:50:39.779Z,4.09
2018-01-25T00:50:43.780Z,4.09
2018-01-25T00:50:47.886Z,4.09
2018-01-25T00:50:51.784Z,4.09
2018-01-25T00:50:55.783Z,4.09
2018-01-25T00:50:59.677Z,4.1
2018-01-25T00:51:03.831Z,4.09
2018-01-25T00:51:07.724Z,4.09
2018-01-25T00:51:11.508Z,4.09
2018-01-25T00:51:15.304Z,4.09
2018-01-25T00:51:19.417Z,4.09
2018-01-25T00:51:23.409Z,4.08
2018-01-25T00:51:27.413Z,4.09
2018-01-25T00:51:31.200Z,4.09
2018-01-25T00:51:35.092Z,4.09
2018-01-25T00:51:38.877Z,4.09
2018-01-25T00:51:42.764Z,4.09
2018-01-25T00:51:46.664Z,4.09
2018-01-25T00:51:50.881Z,4.08
2018-01-25T00:51:54.679Z,4.08
2018-01-25T00:51:58.573Z,4.08
2018-01-25T00:52:02.360Z,4.08
2018-01-25T00:52:06.354Z,4.08
2018-01-25T00:52:10.248Z,4.08
2018-01-25T00:52:14.254Z,4.07
2018-01-25T00:52:18.060Z,4.07
2018-01-25T00:52:22.064Z,4.07
2018-01-25T00:52:26.062Z,4.08
2018-01-25T00:52:30.072Z,4.07
2018-01-25T00:52:33.757Z,4.07
2018-01-25T00:52:37.560Z,4.08